Time;durP1;ratioP1;P1;durP2;ratioP2;P2;SDS_P1;SDS_P2;PMS_P1;PMS_P2;Temp;Humidity;BMP_temperature;BMP_pressure;BME280_temperature;BME280_humidity;BME280_pressure;Samples;Min_cycle;Max_cycle;Signal;HPM_P1;HPM_P2
2022/04/30 00:02:08;;;;;;;9.50;6.38;;;;;;;10.87;52.75;102805.81;5086751;28;20079;-62
2022/04/30 00:04:46;;;;;;;8.68;6.45;;;;;;;10.87;53.09;102796.63;5086907;28;20024;-62
2022/04/30 00:07:16;;;;;;;9.25;6.60;;;;;;;10.82;52.92;102808.34;5076680;28;20040;-62
2022/04/30 00:09:42;;;;;;;8.75;6.22;;;;;;;10.78;53.00;102796.78;5076607;28;20024;-61
2022/04/30 00:12:07;;;;;;;7.95;6.38;;;;;;;10.79;52.87;102806.84;5089589;28;20390;-61
2022/04/30 00:14:32;;;;;;;8.77;6.50;;;;;;;10.82;53.02;102805.56;5090945;28;20456;-61
2022/04/30 00:17:00;;;;;;;10.48;5.72;;;;;;;10.80;53.11;102794.66;5088697;28;20123;-61
2022/04/30 00:19:27;;;;;;;8.60;5.88;;;;;;;10.82;52.97;102797.25;5073781;28;20028;-62
2022/04/30 00:21:52;;;;;;;5.68;5.07;;;;;;;10.80;52.90;102802.97;5089014;28;20032;-62
2022/04/30 00:24:17;;;;;;;5.85;5.05;;;;;;;10.83;52.71;102796.16;5090297;28;20027;-62
2022/04/30 00:26:43;;;;;;;7.30;5.40;;;;;;;10.71;52.92;102795.91;5087184;28;20484;-63
2022/04/30 00:29:09;;;;;;;8.18;5.25;;;;;;;10.65;53.63;102795.88;5079042;28;20034;-62
2022/04/30 00:31:35;;;;;;;7.38;5.38;;;;;;;10.66;53.19;102800.38;5076518;28;20024;-62
2022/04/30 00:34:02;;;;;;;10.48;5.05;;;;;;;10.66;53.11;102803.16;5092838;28;20054;-61
2022/04/30 00:36:27;;;;;;;5.72;4.60;;;;;;;10.74;53.16;102805.75;5093733;28;20031;-61
2022/04/30 00:38:52;;;;;;;5.32;4.38;;;;;;;10.69;53.13;102800.81;5084292;28;20039;-61
2022/04/30 00:41:18;;;;;;;6.65;4.72;;;;;;;10.71;52.88;102800.59;5084836;28;20116;-61
2022/04/30 00:43:54;;;;;;;8.70;5.25;;;;;;;10.72;52.79;102793.97;5091130;28;20036;-61
2022/04/30 00:46:21;;;;;;;6.20;4.65;;;;;;;10.66;52.92;102797.59;5093239;28;20032;-61
2022/04/30 00:48:47;;;;;;;9.95;4.53;;;;;;;10.57;53.16;102803.31;5086785;28;20036;-61
2022/04/30 00:51:14;;;;;;;8.52;5.18;;;;;;;10.55;53.43;102787.94;5092014;28;20036;-61
2022/04/30 00:53:42;;;;;;;5.80;4.57;;;;;;;10.48;53.54;102787.88;5086561;28;20139;-62
2022/04/30 00:56:13;;;;;;;6.93;4.75;;;;;;;10.47;53.40;102783.41;5092328;28;20024;-61
2022/04/30 00:58:40;;;;;;;9.80;4.88;;;;;;;10.38;53.87;102784.63;5088190;28;20119;-61
2022/04/30 01:01:06;;;;;;;10.10;4.93;;;;;;;10.43;53.57;102784.88;5089544;28;20850;-61
2022/04/30 01:03:31;;;;;;;7.55;4.40;;;;;;;10.45;53.70;102781.88;5092337;28;20051;-61
2022/04/30 01:05:58;;;;;;;7.45;5.35;;;;;;;10.47;53.92;102782.53;5094550;28;20123;-61
2022/04/30 01:08:27;;;;;;;8.85;5.13;;;;;;;10.39;54.09;102783.56;5093296;28;20028;-61
2022/04/30 01:10:53;;;;;;;6.15;4.60;;;;;;;10.36;54.20;102781.19;5093804;28;20099;-61
2022/04/30 01:13:19;;;;;;;8.32;4.82;;;;;;;10.34;54.23;102786.09;5084484;28;20119;-61
2022/04/30 01:15:44;;;;;;;7.47;5.10;;;;;;;10.33;54.28;102778.81;5081258;28;20450;-61
2022/04/30 01:18:12;;;;;;;12.20;5.30;;;;;;;10.32;54.09;102783.53;5089962;28;20122;-61
2022/04/30 01:20:42;;;;;;;7.25;5.10;;;;;;;10.23;54.42;102781.09;5079045;28;20442;-61
2022/04/30 01:23:07;;;;;;;6.00;4.88;;;;;;;10.19;54.78;102779.78;5092374;28;20067;-61
2022/04/30 01:25:34;;;;;;;8.02;5.00;;;;;;;10.20;54.52;102776.78;5092330;28;20051;-61
2022/04/30 01:28:03;;;;;;;10.18;5.38;;;;;;;10.17;54.67;102768.03;5090534;28;20052;-61
2022/04/30 01:30:29;;;;;;;8.18;5.22;;;;;;;10.25;54.83;102768.75;5089653;28;20032;-61
2022/04/30 01:38:23;;;;;;;10.45;5.43;;;;;;;10.07;55.25;102769.25;5093097;28;20160;-61
2022/04/30 01:40:49;;;;;;;9.63;5.05;;;;;;;9.98;55.27;102766.81;5093849;28;20522;-61
2022/04/30 01:43:15;;;;;;;8.90;5.05;;;;;;;9.96;55.41;102766.19;5091219;28;20020;-61
2022/04/30 01:45:40;;;;;;;7.30;5.00;;;;;;;10.03;55.61;102765.16;5092604;28;20016;-61
2022/04/30 01:48:08;;;;;;;8.23;4.70;;;;;;;9.96;55.85;102764.25;5090487;28;20046;-61
2022/04/30 01:50:34;;;;;;;8.23;5.45;;;;;;;10.05;55.47;102760.25;5092242;28;20020;-61
2022/04/30 01:53:03;;;;;;;9.45;5.38;;;;;;;10.04;55.51;102763.25;5092644;28;20467;-61
2022/04/30 01:55:28;;;;;;;9.68;5.32;;;;;;;9.91;55.44;102763.16;5092400;28;20028;-61
2022/04/30 01:57:53;;;;;;;8.55;5.00;;;;;;;9.87;55.88;102762.72;5091631;28;20032;-61
2022/04/30 02:00:20;;;;;;;8.30;5.07;;;;;;;9.86;55.97;102760.97;5092227;28;20027;-61
2022/04/30 02:02:49;;;;;;;8.40;5.78;;;;;;;9.80;55.85;102759.88;5090511;28;20125;-62
2022/04/30 02:05:19;;;;;;;8.88;5.25;;;;;;;9.77;56.03;102757.50;5083319;28;20426;-61
2022/04/30 02:07:53;;;;;;;11.73;5.80;;;;;;;9.71;56.51;102752.78;5092123;28;20099;-62
2022/04/30 02:10:20;;;;;;;11.20;6.07;;;;;;;9.70;56.64;102756.59;5092878;28;20120;-61
2022/04/30 02:12:47;;;;;;;9.52;6.05;;;;;;;9.69;56.92;102748.47;5090858;28;20031;-62
2022/04/30 02:15:14;;;;;;;8.38;6.18;;;;;;;9.66;56.75;102751.66;5088673;28;20059;-62
2022/04/30 02:17:41;;;;;;;8.80;5.78;;;;;;;9.63;56.91;102749.25;5090379;28;20525;-62
2022/04/30 02:20:25;;;;;;;10.73;5.90;;;;;;;9.67;56.11;102745.91;5091806;28;20020;-62
2022/04/30 02:22:53;;;;;;;8.35;5.90;;;;;;;9.73;56.65;102747.00;5092128;28;20040;-62
2022/04/30 02:25:20;;;;;;;7.68;5.70;;;;;;;9.61;57.12;102745.84;5089032;28;20150;-62
2022/04/30 02:27:48;;;;;;;9.77;6.30;;;;;;;9.57;56.87;102746.25;5091132;28;20052;-62
2022/04/30 02:30:17;;;;;;;8.05;5.90;;;;;;;9.66;56.52;102744.19;5090139;28;20035;-61
2022/04/30 02:32:46;;;;;;;9.35;5.75;;;;;;;9.57;56.98;102743.47;5091536;28;20471;-62
2022/04/30 02:35:12;;;;;;;10.40;6.43;;;;;;;9.48;57.00;102739.13;5093142;28;20027;-61
2022/04/30 02:37:37;;;;;;;8.43;6.22;;;;;;;9.55;57.06;102737.28;5092448;28;20498;-61
2022/04/30 02:40:04;;;;;;;10.55;5.88;;;;;;;9.43;57.20;102733.34;5089667;28;20032;-61
2022/04/30 02:42:29;;;;;;;9.18;6.50;;;;;;;9.50;57.20;102736.16;5091518;28;20040;-62
2022/04/30 02:44:54;;;;;;;11.93;6.68;;;;;;;9.45;57.25;102736.75;5090973;28;20028;-62
2022/04/30 02:47:19;;;;;;;11.13;6.68;;;;;;;9.41;57.57;102732.69;5092035;28;20115;-62
2022/04/30 02:49:45;;;;;;;8.27;6.45;;;;;;;9.40;57.18;102733.75;5071927;28;20041;-61
2022/04/30 02:52:10;;;;;;;9.75;7.13;;;;;;;9.37;57.88;102736.91;5091516;28;20379;-61
2022/04/30 02:54:35;;;;;;;10.75;7.10;;;;;;;9.42;57.36;102737.16;5091364;28;20028;-62
2022/04/30 02:57:01;;;;;;;11.48;7.35;;;;;;;9.43;57.08;102733.34;5090890;28;20368;-62
2022/04/30 03:02:11;;;;;;;10.63;6.93;;;;;;;9.39;58.08;102733.91;5086475;28;20101;-61
2022/04/30 03:04:36;;;;;;;9.65;7.00;;;;;;;9.31;57.36;102734.91;5084463;28;20017;-61
2022/04/30 03:07:02;;;;;;;11.63;7.38;;;;;;;9.31;57.86;102740.47;5086881;28;20059;-62
2022/04/30 03:09:27;;;;;;;8.75;6.88;;;;;;;9.27;57.68;102733.59;5090645;28;20049;-61
2022/04/30 03:11:52;;;;;;;11.90;7.70;;;;;;;9.27;58.13;102731.69;5089114;28;20472;-62
2022/04/30 03:14:17;;;;;;;11.02;7.60;;;;;;;9.24;57.89;102731.25;5089332;28;20453;-62
2022/04/30 03:22:12;;;;;;;11.95;7.50;;;;;;;9.13;58.39;102731.78;5076942;28;20145;-62
2022/04/30 03:24:38;;;;;;;11.38;7.32;;;;;;;9.10;58.29;102728.31;5085749;28;20048;-62
2022/04/30 03:27:03;;;;;;;10.85;7.53;;;;;;;9.08;58.30;102722.16;5076071;28;20406;-62
2022/04/30 03:29:29;;;;;;;12.25;8.18;;;;;;;9.09;58.37;102720.22;5090460;28;20494;-62
2022/04/30 03:31:55;;;;;;;16.92;7.80;;;;;;;9.11;58.86;102720.88;5079411;28;20115;-61
2022/04/30 03:34:21;;;;;;;12.57;7.55;;;;;;;9.04;59.05;102723.59;5088743;28;20036;-61
2022/04/30 03:36:49;;;;;;;10.60;7.72;;;;;;;8.99;59.07;102715.00;5089118;28;20035;-61
2022/04/30 03:39:14;;;;;;;12.20;7.40;;;;;;;8.98;58.83;102712.44;5088406;28;20430;-61
2022/04/30 03:41:39;;;;;;;11.45;7.13;;;;;;;8.99;58.81;102711.38;5089108;28;20032;-62
2022/04/30 03:44:07;;;;;;;13.98;8.57;;;;;;;9.00;58.48;102705.66;5077863;28;20035;-62
2022/04/30 03:46:36;;;;;;;10.63;7.85;;;;;;;8.95;59.04;102708.13;5090187;28;20028;-62
2022/04/30 03:49:03;;;;;;;12.60;8.23;;;;;;;8.93;58.43;102709.41;5071236;28;20514;-62
2022/04/30 03:51:29;;;;;;;14.18;8.45;;;;;;;8.98;59.27;102706.91;5088307;28;20103;-61
2022/04/30 03:53:54;;;;;;;14.82;8.35;;;;;;;8.92;58.76;102707.66;5088677;28;20119;-61
2022/04/30 03:56:20;;;;;;;11.00;8.43;;;;;;;8.89;59.31;102703.41;5090214;28;20428;-62
2022/04/30 03:58:47;;;;;;;11.65;8.50;;;;;;;8.85;59.68;102707.63;5088812;28;20504;-61
2022/04/30 04:01:18;;;;;;;13.55;8.55;;;;;;;8.88;58.87;102712.75;5090964;28;20369;-62
2022/04/30 04:03:44;;;;;;;13.60;8.80;;;;;;;8.81;59.70;102704.38;5088749;28;20028;-62
2022/04/30 04:06:10;;;;;;;13.15;9.18;;;;;;;8.81;59.65;102709.94;5088836;28;20028;-61
2022/04/30 04:08:36;;;;;;;12.25;8.40;;;;;;;8.82;58.85;102708.00;5089853;28;20042;-62
2022/04/30 04:11:02;;;;;;;14.32;9.43;;;;;;;8.76;59.65;102723.50;5089575;28;20016;-61
2022/04/30 04:18:55;;;;;;;12.63;8.88;;;;;;;8.74;59.64;102708.13;5086333;28;20043;-62
2022/04/30 04:21:20;;;;;;;18.13;10.32;;;;;;;8.71;59.76;102717.69;5087513;28;20032;-61
2022/04/30 04:26:30;;;;;;;12.68;8.80;;;;;;;8.70;59.82;102712.34;5088875;28;20070;-61
2022/04/30 04:28:55;;;;;;;13.90;9.07;;;;;;;8.69;60.16;102714.25;5076602;28;20460;-62
2022/04/30 04:31:22;;;;;;;18.65;9.88;;;;;;;8.69;60.21;102717.03;5081377;28;20047;-62
2022/04/30 04:33:48;;;;;;;11.60;8.90;;;;;;;8.65;59.50;102718.47;5088164;28;20029;-62
2022/04/30 04:36:13;;;;;;;13.27;9.27;;;;;;;8.63;59.89;102726.09;5088977;28;20562;-61
2022/04/30 04:38:38;;;;;;;13.90;8.98;;;;;;;8.63;60.10;102719.72;5088076;28;20020;-62
2022/04/30 04:41:04;;;;;;;12.48;8.80;;;;;;;8.58;60.02;102718.38;5089992;28;20059;-62
2022/04/30 04:43:29;;;;;;;14.98;8.88;;;;;;;8.57;60.84;102724.13;5089940;28;20028;-61
2022/04/30 04:45:57;;;;;;;15.32;9.32;;;;;;;8.57;60.41;102730.50;5088959;28;20462;-61
2022/04/30 04:48:22;;;;;;;13.98;9.15;;;;;;;8.57;60.79;102730.50;5089130;28;20055;-61
2022/04/30 04:50:48;;;;;;;12.93;9.07;;;;;;;8.54;60.67;102728.13;5082487;28;20028;-60
2022/04/30 04:53:13;;;;;;;13.50;9.30;;;;;;;8.55;60.41;102732.59;5090229;28;20465;-62
2022/04/30 04:55:39;;;;;;;15.00;9.07;;;;;;;8.55;60.60;102735.38;5083202;28;20127;-62
2022/04/30 04:58:04;;;;;;;13.07;9.35;;;;;;;8.56;60.69;102741.75;5085440;28;20030;-62
2022/04/30 05:00:30;;;;;;;11.82;9.43;;;;;;;8.56;60.79;102742.63;5084819;28;20020;-61
2022/04/30 05:02:55;;;;;;;16.30;9.93;;;;;;;8.55;60.87;102745.59;5082470;28;20048;-61
2022/04/30 05:05:21;;;;;;;15.35;9.23;;;;;;;8.51;61.42;102745.13;5082334;28;20432;-62
2022/04/30 05:07:46;;;;;;;12.88;10.10;;;;;;;8.49;60.97;102751.88;5078024;28;20067;-62
2022/04/30 05:10:11;;;;;;;17.55;10.35;;;;;;;8.52;61.13;102752.34;5087108;28;20115;-62
2022/04/30 05:12:37;;;;;;;13.88;9.77;;;;;;;8.49;61.03;102757.41;5082473;28;20051;-62
2022/04/30 05:15:05;;;;;;;14.48;10.00;;;;;;;8.54;61.46;102755.81;5086162;28;20028;-62
2022/04/30 05:17:32;;;;;;;14.35;10.45;;;;;;;8.54;61.19;102755.81;5090647;28;20020;-62
2022/04/30 05:19:57;;;;;;;13.88;10.32;;;;;;;8.50;61.25;102748.94;5093477;28;20049;-63
2022/04/30 05:22:22;;;;;;;16.45;10.13;;;;;;;8.54;61.81;102754.94;5091960;28;20111;-62
2022/04/30 05:24:48;;;;;;;15.18;9.73;;;;;;;8.57;61.71;102749.88;5092535;28;20131;-62
2022/04/30 05:27:13;;;;;;;17.05;11.13;;;;;;;8.58;61.70;102757.13;5094579;28;20029;-62
2022/04/30 05:29:38;;;;;;;16.27;10.55;;;;;;;8.58;61.51;102759.91;5081872;28;20073;-63
2022/04/30 05:32:04;;;;;;;15.52;10.32;;;;;;;8.55;61.59;102754.75;5088791;28;20376;-61
2022/04/30 05:34:29;;;;;;;17.52;10.80;;;;;;;8.59;61.59;102753.31;5092061;28;20028;-61
2022/04/30 05:36:55;;;;;;;19.33;11.57;;;;;;;8.62;61.53;102757.59;5093954;28;20032;-61
2022/04/30 05:39:20;;;;;;;13.95;9.90;;;;;;;8.61;62.01;102747.59;5093237;28;20830;-61
2022/04/30 05:41:46;;;;;;;14.20;10.50;;;;;;;8.64;62.30;102760.16;5092777;28;20039;-61
2022/04/30 05:44:12;;;;;;;18.63;10.98;;;;;;;8.66;61.65;102758.09;5094176;28;20019;-60
2022/04/30 05:46:37;;;;;;;15.40;10.60;;;;;;;8.68;61.48;102758.72;5091512;28;20077;-61
2022/04/30 05:49:05;;;;;;;14.45;10.55;;;;;;;8.70;61.88;102751.09;5079380;28;20028;-61
2022/04/30 05:51:31;;;;;;;14.60;10.98;;;;;;;8.67;62.17;102760.66;5073261;28;20027;-62
2022/04/30 05:53:57;;;;;;;14.27;10.45;;;;;;;8.74;62.23;102761.59;5074766;28;20024;-61
2022/04/30 05:56:22;;;;;;;16.45;10.90;;;;;;;8.71;62.54;102761.97;5086625;28;20495;-62
2022/04/30 05:58:47;;;;;;;17.60;11.48;;;;;;;8.74;62.18;102756.06;5073319;28;20032;-62
2022/04/30 06:01:13;;;;;;;16.88;11.25;;;;;;;8.81;62.63;102767.22;5086049;28;20064;-62
2022/04/30 06:03:41;;;;;;;17.45;10.82;;;;;;;8.85;62.61;102760.25;5088560;28;20459;-62
2022/04/30 06:06:07;;;;;;;20.38;11.10;;;;;;;8.93;62.69;102765.66;5093001;28;20475;-62
2022/04/30 06:08:32;;;;;;;18.48;11.55;;;;;;;9.01;62.24;102762.75;5093611;28;20110;-61
2022/04/30 06:10:58;;;;;;;17.02;10.18;;;;;;;9.07;62.54;102764.72;5092871;28;20024;-61
2022/04/30 06:13:26;;;;;;;15.90;10.77;;;;;;;9.22;61.89;102758.28;5093693;28;20024;-61
2022/04/30 06:15:52;;;;;;;14.38;11.18;;;;;;;9.32;62.21;102768.00;5093352;28;20028;-62
2022/04/30 06:18:17;;;;;;;15.10;10.98;;;;;;;9.37;61.88;102767.38;5091163;28;20038;-62
2022/04/30 06:20:43;;;;;;;14.85;11.18;;;;;;;9.52;61.19;102768.19;5092807;28;20141;-62
2022/04/30 06:23:09;;;;;;;17.67;10.70;;;;;;;9.58;61.41;102770.13;5093062;28;20036;-63
2022/04/30 06:25:37;;;;;;;12.77;10.77;;;;;;;9.71;60.83;102763.00;5091792;28;20035;-62
2022/04/30 06:28:03;;;;;;;13.57;10.30;;;;;;;9.75;61.21;102769.88;5093268;28;20035;-62
2022/04/30 06:30:32;;;;;;;17.30;10.63;;;;;;;9.86;60.69;102772.06;5092378;28;20032;-62
2022/04/30 06:32:57;;;;;;;18.05;11.02;;;;;;;9.91;61.13;102766.78;5085055;28;20029;-62
2022/04/30 06:35:23;;;;;;;18.50;10.07;;;;;;;10.05;60.06;102779.69;5075736;28;20044;-63
2022/04/30 06:37:48;;;;;;;14.30;9.88;;;;;;;10.12;60.18;102776.09;5093025;28;20052;-62
2022/04/30 06:40:13;;;;;;;13.75;10.05;;;;;;;10.24;60.18;102775.31;5092615;28;20024;-62
2022/04/30 06:42:44;;;;;;;11.90;9.10;;;;;;;10.33;60.06;102767.72;5092067;28;20031;-62
2022/04/30 06:45:13;;;;;;;13.02;9.27;;;;;;;10.36;59.37;102761.75;5092268;28;20036;-62
2022/04/30 06:47:39;;;;;;;11.48;9.82;;;;;;;10.49;59.36;102767.41;5092654;28;20032;-63
2022/04/30 06:50:05;;;;;;;15.25;9.27;;;;;;;10.53;59.29;102760.38;5092605;28;20101;-62
2022/04/30 06:52:31;;;;;;;13.77;9.93;;;;;;;10.61;58.87;102756.56;5091747;28;20119;-62
2022/04/30 06:57:42;;;;;;;12.23;8.88;;;;;;;10.77;58.36;102769.25;5092266;28;20085;-61
2022/04/30 07:02:54;;;;;;;14.20;9.27;;;;;;;10.90;58.13;102773.97;5090188;28;20059;-61
2022/04/30 07:05:19;;;;;;;11.68;9.25;;;;;;;10.99;57.54;102769.94;5091757;28;20115;-61
2022/04/30 07:07:44;;;;;;;14.48;9.13;;;;;;;11.09;57.69;102772.34;5106019;28;20182;-61
2022/04/30 07:10:10;;;;;;;11.18;9.10;;;;;;;11.10;57.79;102769.34;5099933;28;20094;-60
2022/04/30 07:12:35;;;;;;;10.30;8.45;;;;;;;11.16;57.52;102778.75;5109075;28;20032;-63
2022/04/30 07:15:01;;;;;;;13.57;8.52;;;;;;;11.20;57.18;102767.00;5112484;28;20031;-61
2022/04/30 07:17:26;;;;;;;13.98;8.35;;;;;;;11.23;57.33;102760.16;5109761;28;20694;-62
2022/04/30 07:19:51;;;;;;;11.90;8.23;;;;;;;11.36;57.20;102771.31;5092052;28;20044;-62
2022/04/30 07:22:16;;;;;;;13.25;8.05;;;;;;;11.34;56.35;102773.44;5090321;28;20046;-62
2022/04/30 07:24:42;;;;;;;13.02;8.27;;;;;;;11.43;56.18;102769.38;5106939;28;20032;-64
2022/04/30 07:27:08;;;;;;;11.32;8.23;;;;;;;11.49;56.51;102767.69;5111256;28;20027;-63
2022/04/30 07:29:33;;;;;;;12.90;8.30;;;;;;;11.52;56.19;102768.13;5100888;28;20032;-63
2022/04/30 07:32:00;;;;;;;12.25;8.02;;;;;;;11.57;56.09;102772.19;5090941;28;20407;-63
2022/04/30 07:34:25;;;;;;;12.82;7.90;;;;;;;11.65;56.19;102771.97;5088297;28;20061;-64
2022/04/30 07:36:51;;;;;;;8.80;7.18;;;;;;;11.79;55.79;102768.13;5097160;28;20103;-64
2022/04/30 07:39:16;;;;;;;9.18;7.30;;;;;;;11.89;55.42;102760.22;5095696;28;20042;-62
2022/04/30 07:41:41;;;;;;;9.82;7.68;;;;;;;11.99;55.20;102759.81;5107107;28;20087;-62
2022/04/30 07:44:07;;;;;;;10.75;7.32;;;;;;;12.11;54.96;102760.00;5096667;28;20102;-62
2022/04/30 07:46:32;;;;;;;12.82;7.18;;;;;;;12.23;54.73;102758.25;5109501;28;20035;-62
2022/04/30 07:48:57;;;;;;;9.55;7.30;;;;;;;12.34;54.25;102753.91;5100082;28;20084;-63
2022/04/30 07:51:38;;;;;;;9.75;6.53;;;;;;;12.27;53.49;102754.81;5079688;28;20574;-62
2022/04/30 07:54:04;;;;;;;12.43;6.70;;;;;;;12.18;53.48;102755.25;5091531;28;20115;-62
2022/04/30 07:56:30;;;;;;;10.07;7.00;;;;;;;12.15;53.76;102761.28;5091190;28;20027;-62
2022/04/30 07:58:55;;;;;;;9.63;6.35;;;;;;;12.21;53.37;102755.66;5091711;28;20024;-62
2022/04/30 08:01:21;;;;;;;10.23;6.63;;;;;;;12.31;53.31;102749.66;5091193;28;20076;-62
2022/04/30 08:03:46;;;;;;;9.00;6.07;;;;;;;12.43;54.05;102747.91;5090692;28;20036;-62
2022/04/30 08:06:11;;;;;;;11.63;6.88;;;;;;;12.45;53.93;102747.69;5097437;28;20153;-62
2022/04/30 08:08:37;;;;;;;8.50;7.00;;;;;;;12.50;53.39;102745.97;5091593;28;20050;-62
2022/04/30 08:11:03;;;;;;;9.40;6.53;;;;;;;12.48;53.11;102742.53;5089509;28;20032;-63
2022/04/30 08:13:28;;;;;;;8.98;5.70;;;;;;;12.55;53.06;102747.22;5079654;28;20461;-62
2022/04/30 08:15:53;;;;;;;12.55;6.10;;;;;;;12.54;52.81;102746.38;5091651;28;20059;-62
2022/04/30 08:18:19;;;;;;;7.25;5.95;;;;;;;12.62;52.47;102748.91;5090934;28;20032;-63
2022/04/30 08:20:46;;;;;;;9.68;5.80;;;;;;;12.62;52.23;102751.69;5086586;28;20028;-61
2022/04/30 08:23:12;;;;;;;6.65;5.50;;;;;;;12.69;52.85;102738.59;5087715;28;20036;-62
2022/04/30 08:25:38;;;;;;;12.88;6.10;;;;;;;12.83;52.50;102738.53;5090922;28;20038;-62
2022/04/30 08:28:04;;;;;;;7.78;5.22;;;;;;;12.88;52.06;102741.50;5090639;28;20016;-61
2022/04/30 08:30:33;;;;;;;7.15;5.55;;;;;;;13.05;52.04;102745.50;5089592;28;20131;-62
2022/04/30 08:32:59;;;;;;;10.13;5.63;;;;;;;13.20;51.76;102736.78;5083190;28;20489;-61
2022/04/30 08:35:24;;;;;;;9.40;6.10;;;;;;;13.14;50.90;102743.28;5091039;28;20024;-62
2022/04/30 08:37:50;;;;;;;6.93;5.97;;;;;;;13.05;51.69;102739.91;5084019;28;20084;-62
2022/04/30 08:40:16;;;;;;;10.93;5.80;;;;;;;12.83;51.67;102739.38;5083589;28;20472;-62
2022/04/30 08:42:41;;;;;;;8.05;5.28;;;;;;;12.70;51.95;102729.16;5090132;28;20475;-62
2022/04/30 08:45:08;;;;;;;10.60;6.20;;;;;;;12.52;52.06;102729.88;5078075;28;20085;-61
2022/04/30 08:47:41;;;;;;;8.60;5.88;;;;;;;12.44;52.64;102730.13;5089317;28;20455;-61
2022/04/30 08:50:14;;;;;;;7.85;6.00;;;;;;;12.39;53.23;102721.56;5109544;28;20031;-62
2022/04/30 08:52:39;;;;;;;7.97;5.60;;;;;;;12.31;52.79;102732.97;5074479;28;20031;-62
2022/04/30 08:55:08;;;;;;;8.60;6.00;;;;;;;12.25;52.69;102733.81;5084385;28;20107;-62
2022/04/30 08:57:34;;;;;;;9.48;5.93;;;;;;;12.22;52.78;102728.69;5086906;28;20025;-62
2022/04/30 09:00:04;;;;;;;8.32;6.20;;;;;;;12.22;52.84;102723.13;5095002;28;20039;-63
2022/04/30 09:02:29;;;;;;;9.27;6.45;;;;;;;12.41;53.63;102722.19;5100413;28;20677;-62
2022/04/30 09:04:57;;;;;;;9.55;6.45;;;;;;;12.57;53.56;102733.91;5100656;28;20040;-63
2022/04/30 09:07:26;;;;;;;8.68;5.82;;;;;;;12.56;52.47;102723.88;5111684;28;20055;-63
2022/04/30 09:09:57;;;;;;;9.77;5.40;;;;;;;12.52;52.43;102721.50;5113080;28;20062;-63
2022/04/30 09:12:23;;;;;;;8.30;5.63;;;;;;;12.51;52.29;102727.31;5082527;28;20039;-63
2022/04/30 09:14:49;;;;;;;8.13;5.80;;;;;;;12.43;52.25;102724.78;5081607;28;20477;-63
2022/04/30 09:17:18;;;;;;;9.82;5.82;;;;;;;12.40;52.19;102722.44;5093103;28;20025;-63
2022/04/30 09:19:55;;;;;;;8.55;5.82;;;;;;;12.38;52.52;102728.22;5074471;28;20032;-64
2022/04/30 09:22:33;;;;;;;8.00;5.95;;;;;;;12.35;51.97;102725.88;5074021;28;20032;-62
2022/04/30 09:25:02;;;;;;;10.02;5.75;;;;;;;12.32;52.55;102719.88;5079466;28;20036;-62
2022/04/30 09:27:27;;;;;;;10.25;6.22;;;;;;;12.29;52.58;102715.59;5083493;28;20049;-62
2022/04/30 09:29:53;;;;;;;9.43;6.18;;;;;;;12.30;52.77;102717.34;5087346;28;20028;-61
2022/04/30 09:32:22;;;;;;;6.63;5.70;;;;;;;12.35;52.74;102711.94;5084852;28;20767;-63
2022/04/30 09:37:42;;;;;;;6.82;5.95;;;;;;;12.29;52.59;102712.81;5086889;28;20119;-63
2022/04/30 09:40:17;;;;;;;10.93;6.53;;;;;;;12.28;52.82;102705.53;5084462;28;20060;-62
2022/04/30 09:42:46;;;;;;;11.23;6.47;;;;;;;12.26;52.55;102697.44;5088665;28;20039;-62
2022/04/30 09:45:34;;;;;;;9.27;6.22;;;;;;;12.29;52.71;102708.09;5085206;28;20082;-63
2022/04/30 09:48:02;;;;;;;9.43;6.85;;;;;;;12.23;52.55;102702.56;5093298;28;20523;-64
2022/04/30 09:56:06;;;;;;;7.15;5.90;;;;;;;12.27;50.73;102693.56;5086357;28;20106;-62
2022/04/30 09:58:35;;;;;;;8.07;6.43;;;;;;;12.27;51.15;102692.72;5085090;28;20024;-62
2022/04/30 10:01:05;;;;;;;13.80;6.50;;;;;;;12.34;51.71;102687.09;5084445;28;20396;-62
2022/04/30 10:03:39;;;;;;;10.80;6.78;;;;;;;12.43;51.13;102685.78;5075860;28;20028;-62
2022/04/30 10:06:05;;;;;;;10.13;6.70;;;;;;;12.44;51.38;102688.34;5084324;28;20109;-63
2022/04/30 10:08:35;;;;;;;8.65;5.63;;;;;;;12.45;49.46;102689.19;5073542;28;20032;-62
2022/04/30 10:11:17;;;;;;;7.47;4.97;;;;;;;12.49;49.97;102674.59;5087796;28;20028;-63
2022/04/30 10:13:54;;;;;;;8.18;5.43;;;;;;;12.55;49.23;102678.44;5093179;28;20157;-63
2022/04/30 10:16:25;;;;;;;6.40;5.65;;;;;;;12.61;50.00;102673.91;5097858;28;20096;-63
2022/04/30 10:19:09;;;;;;;11.48;5.82;;;;;;;12.67;49.01;102667.47;5081289;28;20035;-62
2022/04/30 10:21:35;;;;;;;12.38;5.20;;;;;;;12.69;49.47;102668.94;5089174;28;20032;-63
2022/04/30 10:24:09;;;;;;;8.35;5.63;;;;;;;12.72;48.25;102665.69;5082819;28;20502;-63
2022/04/30 10:26:35;;;;;;;7.78;5.35;;;;;;;12.81;48.69;102673.78;5088981;28;20509;-63
2022/04/30 10:29:14;;;;;;;7.68;5.00;;;;;;;12.90;48.90;102659.38;5089372;28;20032;-63
2022/04/30 10:31:44;;;;;;;6.35;5.43;;;;;;;12.93;47.63;102667.31;5089012;28;20067;-63
2022/04/30 10:34:31;;;;;;;6.20;4.85;;;;;;;12.95;48.04;102670.69;5085029;28;20036;-62
2022/04/30 10:37:01;;;;;;;5.85;4.35;;;;;;;12.89;47.03;102668.81;5091946;28;20671;-63
2022/04/30 10:39:26;;;;;;;6.53;4.05;;;;;;;12.88;46.01;102660.66;5090528;28;20028;-63
2022/04/30 10:41:54;;;;;;;5.72;4.25;;;;;;;12.86;46.73;102669.28;5088159;28;20125;-64
2022/04/30 10:44:32;;;;;;;7.10;4.25;;;;;;;12.87;46.72;102653.41;5084605;28;20024;-63
2022/04/30 10:47:14;;;;;;;4.57;4.07;;;;;;;12.85;46.27;102645.28;5088176;28;20429;-62
2022/04/30 10:49:40;;;;;;;5.40;4.00;;;;;;;12.81;46.14;102646.81;5088439;28;20387;-64
2022/04/30 10:52:09;;;;;;;4.85;3.67;;;;;;;12.88;45.86;102650.38;5088738;28;20024;-63
2022/04/30 10:54:34;;;;;;;7.55;4.03;;;;;;;12.98;45.04;102636.81;5093942;28;20052;-63
2022/04/30 10:57:03;;;;;;;5.15;4.03;;;;;;;13.16;44.16;102640.72;5091132;28;20052;-62
2022/04/30 10:59:29;;;;;;;6.90;4.13;;;;;;;13.25;44.61;102639.44;5089154;28;20114;-63
2022/04/30 11:01:54;;;;;;;5.28;4.43;;;;;;;13.41;44.82;102636.06;5090374;28;20570;-61
2022/04/30 11:04:20;;;;;;;8.85;4.53;;;;;;;13.44;44.23;102635.59;5083759;28;20547;-63
2022/04/30 11:06:51;;;;;;;6.65;4.57;;;;;;;13.41;44.70;102630.47;5089966;28;20444;-63
2022/04/30 11:09:17;;;;;;;6.63;4.97;;;;;;;13.43;44.32;102624.66;5090685;28;20036;-62
2022/04/30 11:11:47;;;;;;;7.25;4.75;;;;;;;13.41;44.04;102622.09;5091075;28;20036;-61
2022/04/30 11:14:13;;;;;;;6.55;4.85;;;;;;;13.59;43.80;102620.44;5087857;28;20039;-60
2022/04/30 11:16:46;;;;;;;5.72;5.10;;;;;;;13.60;42.90;102609.06;5091035;28;20027;-60
2022/04/30 11:19:17;;;;;;;6.88;4.95;;;;;;;13.67;44.09;102608.97;5088192;28;20032;-61
2022/04/30 11:21:48;;;;;;;5.00;4.50;;;;;;;13.76;43.12;102613.19;5087816;28;20047;-61
2022/04/30 11:24:42;;;;;;;6.35;4.30;;;;;;;13.84;43.09;102614.81;5091589;28;20020;-61
2022/04/30 11:27:08;;;;;;;4.60;4.20;;;;;;;13.95;41.32;102598.13;5086454;28;20059;-61
2022/04/30 11:29:36;;;;;;;5.60;4.47;;;;;;;14.07;42.60;102603.78;5092080;28;20039;-61
2022/04/30 11:32:03;;;;;;;6.78;5.15;;;;;;;14.11;43.06;102598.56;5091924;28;20093;-61
2022/04/30 11:34:28;;;;;;;5.70;4.25;;;;;;;14.19;43.12;102596.31;5096041;28;20043;-62
2022/04/30 11:36:56;;;;;;;7.15;4.15;;;;;;;14.28;42.79;102596.84;5081055;28;20032;-62
2022/04/30 11:39:22;;;;;;;7.13;4.88;;;;;;;14.30;40.69;102594.66;5085402;28;20028;-61
2022/04/30 11:41:49;;;;;;;5.68;3.85;;;;;;;14.24;40.65;102588.09;5083776;28;20040;-61
2022/04/30 11:44:17;;;;;;;5.38;4.03;;;;;;;14.19;40.05;102584.31;5078276;28;20707;-62
2022/04/30 11:46:44;;;;;;;5.60;4.05;;;;;;;14.11;40.69;102585.47;5082186;28;20391;-62
2022/04/30 11:49:11;;;;;;;8.02;4.63;;;;;;;14.10;40.38;102582.91;5078344;28;20032;-62
2022/04/30 11:51:38;;;;;;;7.32;4.60;;;;;;;14.07;41.85;102588.94;5086979;28;20028;-61
2022/04/30 11:54:08;;;;;;;9.63;5.68;;;;;;;14.15;43.43;102585.88;5084472;28;20157;-62
2022/04/30 11:56:34;;;;;;;6.70;5.38;;;;;;;14.27;44.21;102586.78;5087368;28;20107;-62
2022/04/30 11:59:05;;;;;;;8.15;6.57;;;;;;;14.33;44.81;102587.75;5074184;28;20046;-62
2022/04/30 12:01:33;;;;;;;9.43;6.03;;;;;;;14.29;44.35;102583.72;5079689;28;20439;-62